createdAt,value
2019-01-19T00:00:58.718Z,94904.18
2019-01-19T00:04:09.093Z,94905.84
2019-01-19T00:07:03.420Z,94902.30
2019-01-19T00:10:21.759Z,94918.82
2019-01-19T00:13:08.472Z,94913.03
2019-01-19T00:15:52.628Z,94911.82
2019-01-19T00:18:55.657Z,94913.91
2019-01-19T00:22:03.327Z,94912.75
2019-01-19T00:24:53.796Z,94912.55
2019-01-19T00:27:47.769Z,94909.94
2019-01-19T00:30:44.011Z,94918.89
2019-01-19T00:33:41.905Z,94920.33
2019-01-19T00:36:44.308Z,94919.52
2019-01-19T00:39:44.780Z,94928.97
2019-01-19T00:42:31.375Z,94927.92
2019-01-19T00:45:50.983Z,94929.02
2019-01-19T00:48:32.997Z,94932.62
2019-01-19T00:51:33.931Z,94933.44
2019-01-19T00:54:09.790Z,94930.71
2019-01-19T00:56:49.811Z,94926.40
2019-01-19T00:59:26.211Z,94931.33
2019-01-19T01:02:48.594Z,94925.95
2019-01-19T01:06:11.297Z,94935.00
2019-01-19T01:09:12.863Z,94929.11
2019-01-19T01:11:52.751Z,94924.37
2019-01-19T01:15:05.141Z,94921.52
2019-01-19T01:17:41.745Z,94924.57
2019-01-19T01:20:48.371Z,94921.52
2019-01-19T01:23:53.566Z,94922.22
2019-01-19T01:27:12.535Z,94921.66
2019-01-19T01:30:31.765Z,94924.86
2019-01-19T01:33:26.636Z,94926.55
2019-01-19T01:36:43.604Z,94929.80
2019-01-19T01:39:18.546Z,94929.27
2019-01-19T01:42:38.058Z,94927.55
2019-01-19T01:45:23.762Z,94930.37
2019-01-19T01:48:42.717Z,94932.08
2019-01-19T01:51:33.652Z,94938.88
2019-01-19T01:54:34.871Z,94935.54
2019-01-19T01:57:20.442Z,94936.49
2019-01-19T02:00:12.847Z,94933.84
2019-01-19T02:03:19.247Z,94934.50
2019-01-19T02:06:17.114Z,94929.80
2019-01-19T02:09:24.388Z,94929.06
2019-01-19T02:12:36.650Z,94925.48
2019-01-19T02:15:49.153Z,94927.21
2019-01-19T02:18:35.235Z,94935.40
2019-01-19T02:22:13.791Z,94935.61
2019-01-19T02:25:34.406Z,94936.94
2019-01-19T02:28:44.417Z,94942.41
2019-01-19T02:31:50.150Z,94937.79
2019-01-19T02:34:49.019Z,94931.30
2019-01-19T02:37:49.945Z,94934.29
2019-01-19T02:40:45.471Z,94933.16
2019-01-19T02:43:37.164Z,94934.38
2019-01-19T02:46:24.395Z,94934.72
2019-01-19T02:49:28.001Z,94935.56
2019-01-19T02:52:29.245Z,94937.73
2019-01-19T02:55:30.712Z,94928.50
2019-01-19T02:58:32.395Z,94939.48
2019-01-19T03:01:48.565Z,94946.77
2019-01-19T03:04:39.586Z,94932.87
2019-01-19T03:07:55.915Z,94922.42
2019-01-19T03:11:00.515Z,94935.09
2019-01-19T03:14:10.250Z,94931.53
2019-01-19T03:17:16.408Z,94926.53
2019-01-19T03:20:05.058Z,94922.45
2019-01-19T03:23:06.347Z,94923.02
2019-01-19T03:26:16.721Z,94923.27
2019-01-19T03:30:00.967Z,94924.33
2019-01-19T03:33:07.188Z,94920.41
2019-01-19T03:36:04.132Z,94921.30
2019-01-19T03:39:23.786Z,94925.23
2019-01-19T03:42:46.262Z,94923.84
2019-01-19T03:45:58.483Z,94930.58
2019-01-19T03:49:01.624Z,94933.06
2019-01-19T03:52:05.897Z,94927.15
2019-01-19T03:54:42.827Z,94935.41
2019-01-19T03:57:22.952Z,94939.31
2019-01-19T04:00:28.965Z,94942.65
2019-01-19T04:03:21.002Z,94946.49
2019-01-19T04:06:18.498Z,94947.00
2019-01-19T04:09:30.984Z,94944.96
2019-01-19T04:12:44.514Z,94950.27
2019-01-19T04:15:38.163Z,94953.80
2019-01-19T04:18:22.708Z,94948.26
2019-01-19T04:21:36.589Z,94949.86
2019-01-19T04:24:14.899Z,94947.72
2019-01-19T04:26:47.102Z,94952.30
2019-01-19T04:29:16.604Z,94952.53
2019-01-19T04:31:46.134Z,94955.87
2019-01-19T04:34:15.868Z,94959.48
2019-01-19T04:36:45.545Z,94960.70
2019-01-19T04:39:15.112Z,94959.23
2019-01-19T04:41:44.566Z,94961.27
2019-01-19T04:44:14.019Z,94960.66
2019-01-19T04:46:43.489Z,94969.27
2019-01-19T04:49:13.257Z,94964.64
2019-01-19T04:51:42.786Z,94967.23
2019-01-19T04:54:12.279Z,94968.18
2019-01-19T04:56:41.808Z,94975.20
2019-01-19T04:59:11.370Z,94976.84
2019-01-19T05:01:41.080Z,94973.23
2019-01-19T05:04:10.600Z,94977.86
2019-01-19T05:06:40.149Z,94978.47
2019-01-19T05:09:09.914Z,94976.70
2019-01-19T05:11:39.392Z,94979.59
2019-01-19T05:14:08.847Z,94975.48
2019-01-19T05:16:38.402Z,94974.05
2019-01-19T05:19:07.921Z,94978.95
2019-01-19T05:21:37.538Z,94975.89
2019-01-19T05:24:07.025Z,94980.03
2019-01-19T05:26:36.544Z,94991.34
2019-01-19T05:29:06.039Z,94983.19
2019-01-19T05:31:35.485Z,94988.14
2019-01-19T05:34:05.006Z,94989.19
2019-01-19T05:36:38.482Z,94994.95
2019-01-19T05:39:08.538Z,94993.12
2019-01-19T05:41:38.030Z,95001.22
2019-01-19T05:44:07.582Z,94996.39
2019-01-19T05:46:37.120Z,94994.06
2019-01-19T05:49:06.666Z,94997.88
2019-01-19T05:51:36.147Z,94991.09
2019-01-19T05:54:05.816Z,94995.71
2019-01-19T05:56:35.452Z,94999.58
2019-01-19T05:59:05.011Z,94996.83
2019-01-19T06:01:34.523Z,95006.47
2019-01-19T06:04:04.424Z,95004.56
2019-01-19T06:06:33.890Z,95008.70
2019-01-19T06:09:04.249Z,95006.98
2019-01-19T06:11:33.782Z,95010.80
2019-01-19T06:14:03.266Z,95021.12
2019-01-19T06:16:32.822Z,95024.66
2019-01-19T06:19:02.450Z,95022.20
2019-01-19T06:21:34.965Z,95020.17
2019-01-19T06:24:04.692Z,95019.00
2019-01-19T06:26:34.241Z,95021.47
2019-01-19T06:29:03.707Z,95020.52
2019-01-19T06:31:33.156Z,95020.83
2019-01-19T06:34:02.688Z,95025.81
2019-01-19T06:36:32.160Z,95021.80
2019-01-19T06:39:01.658Z,95019.34
2019-01-19T06:41:31.145Z,95022.05
2019-01-19T06:44:00.689Z,95021.74
2019-01-19T06:46:30.193Z,95027.66
2019-01-19T06:48:59.709Z,95032.34
2019-01-19T06:51:29.238Z,95034.38
2019-01-19T06:54:01.647Z,95039.17
2019-01-19T06:56:30.390Z,95032.55
2019-01-19T06:58:59.943Z,95033.75
2019-01-19T07:01:29.461Z,95034.53
2019-01-19T07:03:58.998Z,95036.88
2019-01-19T07:06:28.508Z,95032.87
2019-01-19T07:09:00.488Z,95037.52
2019-01-19T07:11:33.032Z,95040.98
2019-01-19T07:14:02.637Z,95041.50
2019-01-19T07:16:32.146Z,95040.30
2019-01-19T07:19:01.665Z,95041.38
2019-01-19T07:21:31.306Z,95028.44
2019-01-19T07:24:00.791Z,95036.73
2019-01-19T07:26:30.307Z,95034.08
2019-01-19T07:28:59.847Z,95038.73
2019-01-19T07:31:29.389Z,95045.06
2019-01-19T07:33:58.914Z,95046.25
2019-01-19T07:36:28.466Z,95052.19
2019-01-19T07:38:57.982Z,95051.94
2019-01-19T07:41:27.532Z,95057.31
2019-01-19T07:43:57.117Z,95054.80
2019-01-19T07:46:27.407Z,95056.70
2019-01-19T07:48:56.942Z,95060.87
2019-01-19T07:51:26.460Z,95065.64
2019-01-19T07:53:55.987Z,95064.41
2019-01-19T07:56:25.581Z,95059.63
2019-01-19T07:58:55.043Z,95057.45
2019-01-19T08:01:24.886Z,95061.89
2019-01-19T08:03:54.397Z,95064.09
2019-01-19T08:06:23.906Z,95069.27
2019-01-19T08:08:53.431Z,95071.05
2019-01-19T08:11:22.955Z,95063.59
2019-01-19T08:13:52.481Z,95066.64
2019-01-19T08:16:22.053Z,95070.72
2019-01-19T08:18:52.492Z,95070.80
2019-01-19T08:21:22.027Z,95072.58
2019-01-19T08:23:51.620Z,95072.97
2019-01-19T08:26:26.084Z,95075.01
2019-01-19T08:28:58.623Z,95080.27
2019-01-19T08:31:28.147Z,95074.91
2019-01-19T08:33:57.707Z,95080.83
2019-01-19T08:36:27.452Z,95084.58
2019-01-19T08:38:56.943Z,95087.40
2019-01-19T08:41:26.532Z,95081.73
2019-01-19T08:44:06.045Z,95082.41
2019-01-19T08:46:35.594Z,95091.20
2019-01-19T08:49:05.378Z,95092.41
2019-01-19T08:51:35.105Z,95099.05
2019-01-19T08:54:04.828Z,95106.19
2019-01-19T08:56:34.328Z,95110.28
2019-01-19T08:59:04.134Z,95109.19
2019-01-19T09:01:33.742Z,95098.20
2019-01-19T09:04:03.320Z,95103.02
2019-01-19T09:06:32.879Z,95099.09
2019-01-19T09:09:02.399Z,95102.98
2019-01-19T09:11:31.993Z,95105.64
2019-01-19T09:14:01.501Z,95107.03
2019-01-19T09:16:31.132Z,95106.11
2019-01-19T09:19:00.706Z,95103.89
2019-01-19T09:21:30.215Z,95108.37
2019-01-19T09:24:20.388Z,95107.30
2019-01-19T09:26:49.990Z,95106.33
2019-01-19T09:29:19.508Z,95096.00
2019-01-19T09:31:48.971Z,95100.86
2019-01-19T09:34:18.608Z,95091.13
2019-01-19T09:36:48.126Z,95098.77
2019-01-19T09:39:17.665Z,95085.48
2019-01-19T09:41:47.248Z,95081.27
2019-01-19T09:44:16.837Z,95082.72
2019-01-19T09:46:46.354Z,95084.70
2019-01-19T09:49:15.982Z,95077.58
2019-01-19T09:51:45.656Z,95074.85
2019-01-19T09:54:15.204Z,95075.33
2019-01-19T09:56:44.734Z,95062.02
2019-01-19T09:59:14.161Z,95071.12
2019-01-19T10:01:43.633Z,95068.03
2019-01-19T10:04:13.141Z,95059.91
2019-01-19T10:06:42.628Z,95061.38
2019-01-19T10:09:12.182Z,95053.73
2019-01-19T10:11:41.697Z,95046.37
2019-01-19T10:14:11.271Z,95047.16
2019-01-19T10:16:40.927Z,95040.53
2019-01-19T10:19:10.514Z,95048.56
2019-01-19T10:21:40.035Z,95044.30
2019-01-19T10:24:09.602Z,95029.98
2019-01-19T10:26:39.229Z,95032.23
2019-01-19T10:29:09.481Z,95032.70
2019-01-19T10:31:39.116Z,95031.56
2019-01-19T10:34:08.607Z,95027.02
2019-01-19T10:36:38.152Z,95028.20
2019-01-19T10:39:09.483Z,95033.87
2019-01-19T10:41:41.092Z,95030.27
2019-01-19T10:44:10.175Z,95021.99
2019-01-19T10:46:39.738Z,95029.52
2019-01-19T10:49:09.275Z,95025.95
2019-01-19T10:51:38.900Z,95020.56
2019-01-19T10:54:08.510Z,95015.04
2019-01-19T10:56:38.092Z,95014.90
2019-01-19T10:59:07.623Z,95014.25
2019-01-19T11:01:38.501Z,95012.92
2019-01-19T11:04:11.239Z,95012.62
2019-01-19T11:06:41.322Z,95015.05
2019-01-19T11:09:11.288Z,95006.27
2019-01-19T11:11:40.920Z,94996.67
2019-01-19T11:14:10.550Z,94996.34
2019-01-19T11:16:40.056Z,94995.23
2019-01-19T11:19:09.681Z,94993.55
2019-01-19T11:21:39.221Z,94987.86
2019-01-19T11:24:08.751Z,94986.14
2019-01-19T11:26:38.260Z,94994.20
2019-01-19T11:29:07.780Z,94988.18
2019-01-19T11:31:37.310Z,94987.61
2019-01-19T11:34:06.898Z,94992.39
2019-01-19T11:36:36.589Z,94991.73
2019-01-19T11:39:08.790Z,94987.80
2019-01-19T11:41:38.435Z,94987.77
2019-01-19T11:44:08.170Z,94984.10
2019-01-19T11:46:37.741Z,94981.62
2019-01-19T11:49:07.613Z,94981.83
2019-01-19T11:51:37.200Z,94974.72
2019-01-19T11:54:07.225Z,94981.30
2019-01-19T11:56:36.761Z,94978.40
2019-01-19T11:59:07.452Z,94983.14
2019-01-19T12:01:37.007Z,94974.22
2019-01-19T12:04:06.627Z,94980.89
2019-01-19T12:06:36.115Z,94973.05
2019-01-19T12:09:07.875Z,94968.18
2019-01-19T12:11:37.414Z,94964.34
2019-01-19T12:14:09.775Z,94962.89
2019-01-19T12:16:39.290Z,94971.97
2019-01-19T12:19:08.873Z,94966.75
2019-01-19T12:21:38.535Z,94965.25
2019-01-19T12:24:08.109Z,94964.73
2019-01-19T12:26:37.645Z,94962.55
2019-01-19T12:29:07.557Z,94957.73
2019-01-19T12:31:37.102Z,94954.94
2019-01-19T12:34:06.748Z,94951.69
2019-01-19T12:36:36.880Z,94952.42
2019-01-19T12:39:08.367Z,94945.63
2019-01-19T12:41:38.103Z,94954.21
2019-01-19T12:44:08.497Z,94957.95
2019-01-19T12:46:38.044Z,94955.09
2019-01-19T12:49:09.590Z,94949.66
2019-01-19T12:51:41.147Z,94943.73
2019-01-19T12:54:10.735Z,94944.19
2019-01-19T12:56:40.425Z,94946.19
2019-01-19T12:59:09.983Z,94938.38
2019-01-19T13:01:39.591Z,94941.89
2019-01-19T13:04:12.084Z,94945.59
2019-01-19T13:07:04.203Z,94945.40
2019-01-19T13:09:42.162Z,94940.19
2019-01-19T13:12:20.042Z,94941.49
2019-01-19T13:15:22.995Z,94941.23
2019-01-19T13:18:24.274Z,94943.57
2019-01-19T13:21:39.160Z,94942.92
2019-01-19T13:25:03.187Z,94936.16
2019-01-19T13:28:06.620Z,94937.29
2019-01-19T13:30:57.863Z,94940.23
2019-01-19T13:33:45.431Z,94943.33
2019-01-19T13:36:53.504Z,94938.16
2019-01-19T13:39:57.313Z,94936.00
2019-01-19T13:43:13.852Z,94936.20
2019-01-19T13:46:05.806Z,94934.26
2019-01-19T13:49:04.291Z,94935.23
2019-01-19T13:51:41.606Z,94933.05
2019-01-19T13:55:04.189Z,94930.77
2019-01-19T13:57:52.044Z,94936.62
2019-01-19T14:01:00.947Z,94930.45
2019-01-19T14:04:01.293Z,94928.55
2019-01-19T14:06:50.601Z,94931.19
2019-01-19T14:09:43.741Z,94930.86
2019-01-19T14:12:43.431Z,94927.28
2019-01-19T14:15:46.776Z,94925.82
2019-01-19T14:18:29.104Z,94920.77
2019-01-19T14:21:52.234Z,94926.91
2019-01-19T14:24:36.173Z,94925.72
2019-01-19T14:27:29.325Z,94925.50
2019-01-19T14:30:57.774Z,94927.97
2019-01-19T14:34:05.534Z,94920.49
2019-01-19T14:36:57.240Z,94917.27
2019-01-19T14:40:06.911Z,94920.53
2019-01-19T14:43:19.715Z,94912.89
2019-01-19T14:46:26.882Z,94918.77
2019-01-19T14:49:34.537Z,94912.43
2019-01-19T14:52:39.916Z,94917.02
2019-01-19T14:55:44.619Z,94922.08
2019-01-19T14:58:49.490Z,94924.16
2019-01-19T15:01:55.020Z,94922.87
2019-01-19T15:04:55.212Z,94921.08
2019-01-19T15:07:55.081Z,94918.48
2019-01-19T15:11:17.449Z,94918.34
2019-01-19T15:14:30.562Z,94912.02
2019-01-19T15:17:19.908Z,94918.38
2019-01-19T15:20:20.687Z,94918.54
2019-01-19T15:23:36.403Z,94916.63
2019-01-19T15:26:34.497Z,94915.16
2019-01-19T15:29:42.728Z,94913.23
2019-01-19T15:32:58.096Z,94924.26
2019-01-19T15:36:04.787Z,94919.55
2019-01-19T15:38:42.799Z,94925.71
2019-01-19T15:41:45.268Z,94930.59
2019-01-19T15:44:45.819Z,94925.55
2019-01-19T15:47:56.233Z,94918.73
2019-01-19T15:51:02.940Z,94927.17
2019-01-19T15:54:13.330Z,94925.31
2019-01-19T15:56:59.604Z,94922.23
2019-01-19T16:00:06.871Z,94937.63
2019-01-19T16:03:19.186Z,94935.82
2019-01-19T16:06:37.124Z,94938.28
2019-01-19T16:09:49.173Z,94924.02
2019-01-19T16:12:32.168Z,94926.28
2019-01-19T16:15:35.858Z,94928.06
2019-01-19T16:22:08.253Z,94929.84
2019-01-19T16:25:12.780Z,94921.61
2019-01-19T16:28:35.582Z,94922.45
2019-01-19T16:31:18.580Z,94909.95
2019-01-19T16:34:39.842Z,94915.16
2019-01-19T16:37:33.847Z,94926.55
2019-01-19T16:40:40.727Z,94921.67
2019-01-19T16:43:25.048Z,94923.77
2019-01-19T16:46:27.815Z,94922.63
2019-01-19T16:49:14.401Z,94931.38
2019-01-19T16:52:13.209Z,94928.75
2019-01-19T16:55:14.553Z,94923.70
2019-01-19T16:58:27.296Z,94931.66
2019-01-19T17:01:14.597Z,94940.77
2019-01-19T17:03:53.665Z,94952.94
2019-01-19T17:06:52.127Z,94950.83
2019-01-19T17:09:40.631Z,94946.27
2019-01-19T17:12:29.248Z,94958.14
2019-01-19T17:15:55.220Z,94940.42
2019-01-19T17:19:06.226Z,94940.09
2019-01-19T17:22:12.685Z,94944.66
2019-01-19T17:25:18.753Z,94945.78
2019-01-19T17:28:21.814Z,94946.27
2019-01-19T17:31:35.254Z,94945.32
2019-01-19T17:35:03.747Z,94942.23
2019-01-19T17:37:44.546Z,94939.81
2019-01-19T17:40:56.948Z,94946.66
2019-01-19T17:43:44.954Z,94952.16
2019-01-19T17:46:49.247Z,94942.13
2019-01-19T17:49:49.229Z,94957.23
2019-01-19T17:52:40.802Z,94959.98
2019-01-19T17:55:57.286Z,94949.61
2019-01-19T17:59:13.456Z,94953.49
2019-01-19T18:02:07.430Z,94952.83
2019-01-19T18:05:13.657Z,94954.31
2019-01-19T18:08:25.854Z,94961.60
2019-01-19T18:11:23.845Z,94953.65
2019-01-19T18:14:40.457Z,94960.00
2019-01-19T18:17:54.316Z,94953.83
2019-01-19T18:20:56.296Z,94955.13
2019-01-19T18:24:16.595Z,94962.77
2019-01-19T18:27:06.081Z,94951.55
2019-01-19T18:30:15.329Z,94968.77
2019-01-19T18:33:13.377Z,94963.87
2019-01-19T18:36:11.696Z,94964.22
2019-01-19T18:39:36.501Z,94965.20
2019-01-19T18:42:52.669Z,94963.56
2019-01-19T18:45:54.605Z,94958.20
2019-01-19T18:49:32.586Z,94967.12
2019-01-19T18:52:42.754Z,94964.05
2019-01-19T18:55:29.364Z,94967.30
2019-01-19T18:59:04.453Z,94963.23
2019-01-19T19:02:01.502Z,94958.36
2019-01-19T19:05:26.998Z,94959.97
2019-01-19T19:08:25.729Z,94961.91
2019-01-19T19:11:31.825Z,94965.95
2019-01-19T19:14:50.864Z,94957.20
2019-01-19T19:17:46.677Z,94963.36
2019-01-19T19:20:49.089Z,94961.09
2019-01-19T19:24:02.482Z,94969.84
2019-01-19T19:27:09.040Z,94966.72
2019-01-19T19:29:58.876Z,94967.05
2019-01-19T19:32:43.040Z,94959.27
2019-01-19T19:35:54.772Z,94963.48
2019-01-19T19:39:17.027Z,94964.13
2019-01-19T19:42:38.899Z,94960.89
2019-01-19T19:45:54.333Z,94968.98
2019-01-19T19:48:54.333Z,94967.07
2019-01-19T19:51:59.044Z,94974.84
2019-01-19T19:54:29.890Z,94970.13
2019-01-19T19:57:00.030Z,94973.88
2019-01-19T19:59:29.939Z,94976.77
2019-01-19T20:01:59.795Z,94986.19
2019-01-19T20:04:29.341Z,94984.88
2019-01-19T20:06:59.463Z,94986.32
2019-01-19T20:09:30.653Z,94980.98
2019-01-19T20:12:06.046Z,94986.16
2019-01-19T20:14:36.162Z,94974.79
2019-01-19T20:17:06.255Z,94985.84
2019-01-19T20:19:36.018Z,94975.42
2019-01-19T20:22:05.833Z,94978.53
2019-01-19T20:24:38.644Z,94973.65
2019-01-19T20:27:08.203Z,94975.91
2019-01-19T20:29:39.304Z,94986.08
2019-01-19T20:32:09.052Z,94978.30
2019-01-19T20:34:38.603Z,94977.34
2019-01-19T20:37:08.602Z,94978.30
2019-01-19T20:39:39.300Z,94978.33
2019-01-19T20:42:13.058Z,94978.66
2019-01-19T20:44:44.677Z,94976.06
2019-01-19T20:47:22.572Z,94979.33
2019-01-19T20:49:52.583Z,94980.44
2019-01-19T20:52:22.290Z,94972.50
2019-01-19T20:54:53.827Z,94975.25
2019-01-19T20:57:23.754Z,94979.14
2019-01-19T20:59:53.388Z,94979.30
2019-01-19T21:02:23.735Z,94986.75
2019-01-19T21:04:53.914Z,94986.39
2019-01-19T21:07:23.465Z,94983.16
2019-01-19T21:09:53.181Z,94986.09
2019-01-19T21:12:23.009Z,94984.45
2019-01-19T21:14:57.547Z,94980.56
2019-01-19T21:17:27.193Z,94983.16
2019-01-19T21:19:56.838Z,94981.56
2019-01-19T21:22:26.389Z,94979.27
2019-01-19T21:24:57.439Z,94984.79
2019-01-19T21:27:27.172Z,94982.05
2019-01-19T21:29:56.694Z,94986.42
2019-01-19T21:32:26.401Z,94982.67
2019-01-19T21:34:56.084Z,94983.82
2019-01-19T21:37:25.862Z,94990.09
2019-01-19T21:39:55.654Z,94990.28
2019-01-19T21:42:25.200Z,94995.10
2019-01-19T21:44:54.689Z,94996.73
2019-01-19T21:47:24.210Z,94995.13
2019-01-19T21:49:54.330Z,94996.61
2019-01-19T21:52:24.837Z,94989.95
2019-01-19T21:54:54.493Z,94991.84
2019-01-19T21:57:24.095Z,95001.92
2019-01-19T21:59:53.606Z,94999.66
2019-01-19T22:02:23.132Z,95000.33
2019-01-19T22:04:52.757Z,94997.88
2019-01-19T22:07:22.828Z,94996.40
2019-01-19T22:09:52.478Z,94995.73
2019-01-19T22:12:22.575Z,94994.47
2019-01-19T22:14:52.200Z,94993.33
2019-01-19T22:17:21.909Z,94992.17
2019-01-19T22:19:51.506Z,94993.80
2019-01-19T22:22:21.014Z,94994.62
2019-01-19T22:24:50.576Z,94992.17
2019-01-19T22:27:20.337Z,94993.29
2019-01-19T22:29:49.885Z,94989.91
2019-01-19T22:32:19.652Z,94985.80
2019-01-19T22:34:49.259Z,94986.95
2019-01-19T22:37:19.017Z,94985.33
2019-01-19T22:39:52.664Z,94985.03
2019-01-19T22:42:22.288Z,94984.39
2019-01-19T22:44:51.791Z,94984.09
2019-01-19T22:47:21.520Z,94983.58
2019-01-19T22:49:51.032Z,94985.69
2019-01-19T22:52:22.327Z,94980.47
2019-01-19T22:54:51.850Z,94983.20
2019-01-19T22:57:21.542Z,94976.25
2019-01-19T22:59:51.114Z,94968.13
2019-01-19T23:02:20.758Z,94966.35
2019-01-19T23:04:50.391Z,94960.31
2019-01-19T23:07:19.993Z,94954.95
2019-01-19T23:09:49.498Z,94953.35
2019-01-19T23:12:19.182Z,94953.02
2019-01-19T23:14:49.191Z,94953.50
2019-01-19T23:17:18.700Z,94957.55
2019-01-19T23:19:48.285Z,94947.87
2019-01-19T23:22:18.233Z,94954.80
2019-01-19T23:24:47.819Z,94953.02
2019-01-19T23:27:17.289Z,94949.61
2019-01-19T23:29:47.077Z,94956.72
2019-01-19T23:32:16.585Z,94951.84
2019-01-19T23:34:46.294Z,94946.36
2019-01-19T23:37:16.338Z,94947.47
2019-01-19T23:39:45.973Z,94939.20
2019-01-19T23:42:15.498Z,94936.43
2019-01-19T23:44:45.202Z,94934.47
2019-01-19T23:47:14.815Z,94937.20
2019-01-19T23:49:44.493Z,94936.09
2019-01-19T23:52:14.189Z,94939.84
2019-01-19T23:54:45.720Z,94933.65
2019-01-19T23:57:15.430Z,94941.13
2019-01-19T23:59:44.990Z,94932.35
